Rio Grande — WDG9180 — position and weather

sailwx.info

Track history (hours):
 
Tides and Currents Weather Stations Pressure Air Temp Water Temp Dewpoint Dewpoint Depression Visibility Wind Speed Wind Dir Waves Ship Positions

Rio Grande

Owner: Higman Barge Lines, Inc, Orange, TX. More information available from US FCC via Universal Licensing System and Coast Guard Vessel Documentation Center.

Last reported at 2017-Nov-23 07:30 UTC. Time now 2017-Nov-23 07:39 UTC.
Position N 29°59' W 093°12'.

Length 22 m; draft 3 m.

Type: Towing. MMSI: 367585170.

Date/timePositionNaut miles runAvg speedWind from/ knotsBaromVisibWave heightAir tempDewpointWater temp
2017-Nov-23 07:30N 29°59' W 093°12'0 0.2
2017-Nov-23 07:01N 29°59' W 093°12'0 0.1
2017-Nov-23 06:31N 29°59' W 093°12'1 1.8
2017-Nov-23 06:01N 29°58' W 093°11'2 3.7
2017-Nov-23 05:31N 29°56' W 093°10'2 4.3
2017-Nov-23 05:00N 29°56' W 093°07'2 4.6
2017-Nov-23 04:30N 29°56' W 093°05'2 3.9
2017-Nov-23 04:01N 29°56' W 093°02'1 2.6
2017-Nov-23 03:29N 29°56' W 093°01'2 3.1
2017-Nov-23 02:56N 29°56' W 092°59'32 4.3
2017-Nov-22 19:37N 29°52' W 092°23'1 4.1
2017-Nov-22 19:16N 29°51' W 092°22'  
2017-Nov-17 15:28N 29°57' W 090°23'0 0.0
2017-Nov-17 15:00N 29°57' W 090°23'0 0.0
2017-Nov-17 14:28N 29°57' W 090°23'0 0.0
2017-Nov-17 13:56N 29°57' W 090°23'0 0.0
2017-Nov-17 13:30N 29°57' W 090°23'0 0.0
2017-Nov-17 12:53N 29°57' W 090°23'0 0.0
2017-Nov-17 12:29N 29°57' W 090°23'0 0.0
2017-Nov-17 11:57N 29°57' W 090°23'0 0.0
2017-Nov-17 11:22N 29°57' W 090°23'0 0.0
2017-Nov-17 10:57N 29°57' W 090°23'0 0.0
2017-Nov-17 10:30N 29°57' W 090°23'0 0.0
2017-Nov-17 10:00N 29°57' W 090°23'0 0.0
2017-Nov-17 09:30N 29°57' W 090°23'0 0.0
2017-Nov-17 08:58N 29°57' W 090°23'0 0.0
2017-Nov-17 07:36N 29°57' W 090°23'0 0.0
2017-Nov-17 07:30N 29°57' W 090°23'0 0.0
2017-Nov-17 06:59N 29°57' W 090°23'0 0.0
2017-Nov-17 06:30N 29°57' W 090°23'0 0.0
2017-Nov-17 05:48N 29°57' W 090°23'0 0.0
2017-Nov-17 05:07N 29°57' W 090°23'0 0.0
2017-Nov-15 10:19N 29°57' W 090°23'0 0.0
2017-Nov-15 09:58N 29°57' W 090°23'0 0.0
2017-Nov-15 08:34N 29°57' W 090°23'0 0.0
2017-Nov-15 08:21N 29°57' W 090°23'0 0.0
2017-Nov-15 07:58N 29°57' W 090°23'0 0.0
2017-Nov-15 07:30N 29°57' W 090°23'0 0.0
2017-Nov-15 07:00N 29°57' W 090°23'0 0.0
2017-Nov-15 06:30N 29°57' W 090°23'0 0.0
2017-Nov-15 05:18N 29°57' W 090°23'0 0.0
2017-Nov-15 05:00N 29°57' W 090°23'0 0.0
2017-Nov-15 04:28N 29°57' W 090°23'0 0.0
2017-Nov-15 04:00N 29°57' W 090°23'0 0.0
2017-Nov-15 03:30N 29°57' W 090°23'0 0.0
2017-Nov-15 02:33N 29°57' W 090°23'0 0.0
2017-Nov-14 06:58N 29°57' W 090°23'  
Track history (hours):
 
Tides and Currents Weather Stations Pressure Air Temp Water Temp Dewpoint Dewpoint Depression Visibility Wind Speed Wind Dir Waves Ship Positions

Rio Grande

Owner: Higman Barge Lines, Inc, Orange, TX. More information available from US FCC via Universal Licensing System and Coast Guard Vessel Documentation Center.

Last reported at 2017-Nov-23 07:30 UTC. Time now 2017-Nov-23 07:39 UTC.
Position N 29°59' W 093°12'.

Length 22 m; draft 3 m.

Type: Towing. MMSI: 367585170.

Date/timePositionNaut miles runAvg speedWind from/ knotsBaromVisibWave heightAir tempDewpointWater temp
2017-Nov-23 07:30N 29°59' W 093°12'0 0.2
2017-Nov-23 07:01N 29°59' W 093°12'0 0.1
2017-Nov-23 06:31N 29°59' W 093°12'1 1.8
2017-Nov-23 06:01N 29°58' W 093°11'2 3.7
2017-Nov-23 05:31N 29°56' W 093°10'2 4.3
2017-Nov-23 05:00N 29°56' W 093°07'2 4.6
2017-Nov-23 04:30N 29°56' W 093°05'2 3.9
2017-Nov-23 04:01N 29°56' W 093°02'1 2.6
2017-Nov-23 03:29N 29°56' W 093°01'2 3.1
2017-Nov-23 02:56N 29°56' W 092°59'32 4.3
2017-Nov-22 19:37N 29°52' W 092°23'1 4.1
2017-Nov-22 19:16N 29°51' W 092°22'  
2017-Nov-17 15:28N 29°57' W 090°23'0 0.0
2017-Nov-17 15:00N 29°57' W 090°23'0 0.0
2017-Nov-17 14:28N 29°57' W 090°23'0 0.0
2017-Nov-17 13:56N 29°57' W 090°23'0 0.0
2017-Nov-17 13:30N 29°57' W 090°23'0 0.0
2017-Nov-17 12:53N 29°57' W 090°23'0 0.0
2017-Nov-17 12:29N 29°57' W 090°23'0 0.0
2017-Nov-17 11:57N 29°57' W 090°23'0 0.0
2017-Nov-17 11:22N 29°57' W 090°23'0 0.0
2017-Nov-17 10:57N 29°57' W 090°23'0 0.0
2017-Nov-17 10:30N 29°57' W 090°23'0 0.0
2017-Nov-17 10:00N 29°57' W 090°23'0 0.0
2017-Nov-17 09:30N 29°57' W 090°23'0 0.0
2017-Nov-17 08:58N 29°57' W 090°23'0 0.0
2017-Nov-17 07:36N 29°57' W 090°23'0 0.0
2017-Nov-17 07:30N 29°57' W 090°23'0 0.0
2017-Nov-17 06:59N 29°57' W 090°23'0 0.0
2017-Nov-17 06:30N 29°57' W 090°23'0 0.0
2017-Nov-17 05:48N 29°57' W 090°23'0 0.0
2017-Nov-17 05:07N 29°57' W 090°23'0 0.0
2017-Nov-15 10:19N 29°57' W 090°23'0 0.0
2017-Nov-15 09:58N 29°57' W 090°23'0 0.0
2017-Nov-15 08:34N 29°57' W 090°23'0 0.0
2017-Nov-15 08:21N 29°57' W 090°23'0 0.0
2017-Nov-15 07:58N 29°57' W 090°23'0 0.0
2017-Nov-15 07:30N 29°57' W 090°23'0 0.0
2017-Nov-15 07:00N 29°57' W 090°23'0 0.0
2017-Nov-15 06:30N 29°57' W 090°23'0 0.0
2017-Nov-15 05:18N 29°57' W 090°23'0 0.0
2017-Nov-15 05:00N 29°57' W 090°23'0 0.0
2017-Nov-15 04:28N 29°57' W 090°23'0 0.0
2017-Nov-15 04:00N 29°57' W 090°23'0 0.0
2017-Nov-15 03:30N 29°57' W 090°23'0 0.0
2017-Nov-15 02:33N 29°57' W 090°23'0 0.0
2017-Nov-14 06:58N 29°57' W 090°23'  

Dump ship's entire track history